CheckWX is a tool to help pilots better visualize weather data.  It is not intended as a substitute for an official pre-flight weather briefing.

01:39:14 UTC

FAKN METAR
Kruger Mpumalanga International Airport
Mpumalanga, South Africa
Current

39 mins ago

FAKN 240100Z AUTO 33003KT //// // ////// 20/18 Q1016
Observed
Feb-24 @ 01:00 UTC
Wind
  • 330° at 3 KTS
Visibility
Temperature
20°C / 68°F
Dewpoint
18°C / 64°F
Humidity
88%
Altimeter
30" Hg
Pressure
1015.92 hPa
Previous

2 hours ago

FAKN 240000Z AUTO 20003KT //// // ////// 20/18 Q1016
Observed
Feb-24 @ 00:00 UTC
Wind
  • 200° at 3 KTS
Visibility
Temperature
20°C / 68°F
Dewpoint
18°C / 64°F
Humidity
88%
Altimeter
30" Hg
Pressure
1015.92 hPa
Previous

3 hours ago

FAKN 232300Z AUTO 17007KT //// // ////// 21/18 Q1016
Observed
Feb-23 @ 23:00 UTC
Wind
  • 170° at 7 KTS
Visibility
Temperature
21°C / 70°F
Dewpoint
18°C / 64°F
Humidity
83%
Altimeter
30" Hg
Pressure
1015.92 hPa